Hauptseite
METAR-TAF:

METAR-TAF

Flughäfen :

Flughafen Augsburg

Augsburg, Deutschland

Breite: 48-26N, Länge: 010-56E, Höhe: 461 m

Beobachtung

Neuester Wetterbericht von vor 26 Minuten, um 01:50 UTC
Wind 3 kt aus Ost
Temperatur -4°C
Luftfeuchtigkeit 93%
Luftdruck 1037 hPa
Sichtweite 10 km oder mehr

METAR: EDMA 050150Z AUTO 08003KT 9999 // NCD M04/M05 Q1037

Zeit: 03:16 (02:16 UTC)

Prognose

Neuester Wetterbericht von vor 9 Stunden und 16 Minuten, um 17:00 UTC
Gültige Prognose vom 04 um 18 UTC bis 05 um 03 UTC
Wind 3 kt aus Nordost
Sichtweite 10 km oder mehr
Leicht bewölkt in der Höhe von 4000 ft
Wahrscheinlichkeit 30% :
Zeitweise
vom 05 um 00 UTC bis 05 um 03 UTC
Sichtweite: 4000 m
feuchter Dunst

TAF: EDMA 041700Z 0418/0503 04003KT 9999 FEW040 PROB30 TEMPO 0500/0503 4000 BR

Wetterbeobachtungen und Prognosen von mehr als 4000 Flughäfen (METAR und TAF Bericht).

Die verfügbaren Stationen werden durch gelbe und rote Markierungen auf der Karte dargestellt.

Führen Sie die Maus auf sie, um den Namen der Station zu sehen.

Darauf klicken, um die Beobachtung von Wetterbeobachtungen und Prognosen zu sehen.

Um die Karte zu ändern : klicken Sie auf den grünen Tasten mit einem schwarzen Kreuz Zum Vergrößern, auf den grünen Button mit einem Gedankenstrich zu verkleinern, oder auf die grünen Pfeile für benachbarte Karten.


METAR-TAF: